RJA506 HECA-OJAI
Flight info
| Callsign | RJA506 |
|---|---|
| Flight time | 0h 59m |
| Altitude | 35000 |
| Route | CVO L677 MENLI N697 SISIK W976 TAKSU L550 KARIK B411 ULINA M319 LOSIL |
| Aircraft | A21N/M-SDE2E3FGHIRWXY/LB1 |
Departure
| Time | 2026-05-06 12:42 |
|---|---|
| Airport | Cairo International Airport (HECA) |
Arrival
| Time | 2026-05-06 13:41 |
|---|---|
| Airport | Queen Alia International Airport (OJAI) |
| Time | Latitude | Longitude | Altitude | Speed | Heading |
|---|---|---|---|---|---|
| 2026-05-06 12:16 | 30.11030 | 31.40420 | 375 ft | 0 kts | 17° |
| 2026-05-06 12:18 | 30.11014 | 31.40414 | 375 ft | 0 kts | 17° |
| 2026-05-06 12:34 | 30.10996 | 31.40406 | 403 ft | 4 kts | 25° |
| 2026-05-06 12:34 | 30.10973 | 31.40391 | 376 ft | 4 kts | 38° |
| 2026-05-06 12:34 | 30.10954 | 31.40370 | 376 ft | 4 kts | 56° |
| 2026-05-06 12:35 | 30.10943 | 31.40342 | 375 ft | 4 kts | 85° |
| 2026-05-06 12:35 | 30.10944 | 31.40324 | 374 ft | 1 kts | 108° |
| 2026-05-06 12:38 | 30.10942 | 31.40333 | 375 ft | 8 kts | 107° |
| 2026-05-06 12:38 | 30.10892 | 31.40448 | 384 ft | 21 kts | 167° |
| 2026-05-06 12:38 | 30.10775 | 31.40348 | 388 ft | 24 kts | 230° |
| 2026-05-06 12:39 | 30.10652 | 31.40190 | 389 ft | 28 kts | 231° |
| 2026-05-06 12:39 | 30.10523 | 31.40019 | 384 ft | 29 kts | 229° |
| 2026-05-06 12:39 | 30.10384 | 31.39837 | 386 ft | 32 kts | 231° |
| 2026-05-06 12:39 | 30.10251 | 31.39659 | 392 ft | 24 kts | 229° |
| 2026-05-06 12:40 | 30.10125 | 31.39587 | 395 ft | 19 kts | 143° |
| 2026-05-06 12:40 | 30.10049 | 31.39668 | 394 ft | 8 kts | 141° |
| 2026-05-06 12:40 | 30.10038 | 31.39679 | 394 ft | 1 kts | 140° |
| 2026-05-06 12:40 | 30.10034 | 31.39682 | 394 ft | 1 kts | 139° |
| 2026-05-06 12:41 | 30.09997 | 31.39771 | 394 ft | 20 kts | 86° |
| 2026-05-06 12:41 | 30.10028 | 31.39915 | 391 ft | 20 kts | 47° |
| 2026-05-06 12:41 | 30.10223 | 31.40170 | 394 ft | 88 kts | 49° |
| 2026-05-06 12:41 | 30.10820 | 31.40960 | 391 ft | 167 kts | 48° |
| 2026-05-06 12:42 | 30.11625 | 31.42063 | 995 ft | 185 kts | 46° |
| 2026-05-06 12:42 | 30.12369 | 31.43297 | 2027 ft | 191 kts | 66° |
| 2026-05-06 12:42 | 30.12471 | 31.44861 | 2940 ft | 206 kts | 98° |
| 2026-05-06 12:42 | 30.11977 | 31.46459 | 3864 ft | 218 kts | 112° |
| 2026-05-06 12:43 | 30.11291 | 31.48103 | 4810 ft | 240 kts | 113° |
| 2026-05-06 12:43 | 30.10523 | 31.49943 | 5667 ft | 266 kts | 114° |
| 2026-05-06 12:43 | 30.09709 | 31.51884 | 6818 ft | 277 kts | 114° |
| 2026-05-06 12:43 | 30.08852 | 31.53926 | 7987 ft | 287 kts | 115° |
| 2026-05-06 12:44 | 30.07967 | 31.56026 | 9205 ft | 295 kts | 115° |
| 2026-05-06 12:44 | 30.07059 | 31.58183 | 10379 ft | 304 kts | 116° |
| 2026-05-06 12:44 | 30.06097 | 31.60471 | 10992 ft | 332 kts | 116° |
| 2026-05-06 12:44 | 30.05044 | 31.62972 | 11507 ft | 359 kts | 116° |
| 2026-05-06 12:45 | 30.03913 | 31.65650 | 12059 ft | 383 kts | 116° |
| 2026-05-06 12:45 | 30.02723 | 31.68470 | 12834 ft | 396 kts | 116° |
| 2026-05-06 12:45 | 30.00269 | 31.74294 | 14731 ft | 410 kts | 117° |
| 2026-05-06 12:46 | 29.99015 | 31.77265 | 15651 ft | 415 kts | 117° |
| 2026-05-06 12:46 | 29.97739 | 31.80278 | 16606 ft | 421 kts | 117° |
| 2026-05-06 12:46 | 29.96444 | 31.83329 | 17553 ft | 426 kts | 117° |
| 2026-05-06 12:46 | 29.95134 | 31.86422 | 18465 ft | 432 kts | 117° |
| 2026-05-06 12:47 | 29.93808 | 31.89551 | 19300 ft | 437 kts | 117° |
| 2026-05-06 12:47 | 29.92465 | 31.92718 | 20134 ft | 442 kts | 117° |
| 2026-05-06 12:47 | 29.91105 | 31.95916 | 20955 ft | 447 kts | 117° |
| 2026-05-06 12:47 | 29.89728 | 31.99152 | 21747 ft | 452 kts | 118° |
| 2026-05-06 12:48 | 29.88343 | 32.02415 | 22544 ft | 456 kts | 118° |
| 2026-05-06 12:48 | 29.86940 | 32.05716 | 23327 ft | 461 kts | 118° |
| 2026-05-06 12:48 | 29.85520 | 32.09049 | 23998 ft | 466 kts | 118° |
| 2026-05-06 12:48 | 29.84085 | 32.12417 | 24626 ft | 471 kts | 118° |
| 2026-05-06 12:49 | 29.82629 | 32.15820 | 25222 ft | 476 kts | 118° |
| 2026-05-06 12:49 | 29.81156 | 32.19257 | 25812 ft | 481 kts | 118° |
| 2026-05-06 12:49 | 29.79681 | 32.22690 | 26404 ft | 487 kts | 118° |
| 2026-05-06 12:49 | 29.78173 | 32.26207 | 26972 ft | 492 kts | 118° |
| 2026-05-06 12:50 | 29.76658 | 32.29752 | 27527 ft | 496 kts | 118° |
| 2026-05-06 12:50 | 29.75132 | 32.33319 | 28214 ft | 497 kts | 118° |
| 2026-05-06 12:50 | 29.73604 | 32.36885 | 28951 ft | 496 kts | 118° |
| 2026-05-06 12:50 | 29.72076 | 32.40436 | 29681 ft | 496 kts | 118° |
| 2026-05-06 12:51 | 29.70542 | 32.43989 | 30334 ft | 496 kts | 119° |
| 2026-05-06 12:51 | 29.69012 | 32.47540 | 30915 ft | 496 kts | 118° |
| 2026-05-06 12:51 | 29.67483 | 32.51097 | 31503 ft | 495 kts | 118° |
| 2026-05-06 12:51 | 29.65959 | 32.54640 | 32060 ft | 495 kts | 119° |
| 2026-05-06 12:52 | 29.64429 | 32.58189 | 32629 ft | 494 kts | 119° |
| 2026-05-06 12:52 | 29.62902 | 32.61727 | 33199 ft | 494 kts | 119° |
| 2026-05-06 12:52 | 29.61402 | 32.65278 | 33766 ft | 494 kts | 116° |
| 2026-05-06 12:52 | 29.60316 | 32.69021 | 34269 ft | 497 kts | 103° |
| 2026-05-06 12:53 | 29.59959 | 32.72972 | 34679 ft | 499 kts | 91° |
| 2026-05-06 12:53 | 29.59996 | 32.76968 | 34995 ft | 501 kts | 89° |
| 2026-05-06 12:53 | 29.60069 | 32.80914 | 35071 ft | 500 kts | 89° |
| 2026-05-06 12:54 | 29.60174 | 32.88896 | 35056 ft | 499 kts | 90° |
| 2026-05-06 12:54 | 29.60246 | 32.96865 | 35039 ft | 499 kts | 90° |
| 2026-05-06 12:55 | 29.60312 | 33.04834 | 35039 ft | 499 kts | 90° |
| 2026-05-06 12:55 | 29.60391 | 33.12810 | 35038 ft | 499 kts | 90° |
| 2026-05-06 12:56 | 29.60455 | 33.20782 | 35034 ft | 499 kts | 90° |
| 2026-05-06 12:56 | 29.60506 | 33.28755 | 35036 ft | 499 kts | 90° |
| 2026-05-06 12:57 | 29.60546 | 33.36724 | 35048 ft | 498 kts | 90° |
| 2026-05-06 12:57 | 29.60595 | 33.44692 | 35036 ft | 499 kts | 90° |
| 2026-05-06 12:58 | 29.60636 | 33.52658 | 35036 ft | 499 kts | 90° |
| 2026-05-06 12:58 | 29.60668 | 33.60619 | 35033 ft | 498 kts | 90° |
| 2026-05-06 12:59 | 29.60702 | 33.68535 | 35037 ft | 498 kts | 90° |
| 2026-05-06 12:59 | 29.60723 | 33.76497 | 35036 ft | 498 kts | 90° |
| 2026-05-06 13:00 | 29.60734 | 33.84456 | 35036 ft | 498 kts | 91° |
| 2026-05-06 13:00 | 29.60722 | 33.92412 | 35033 ft | 498 kts | 91° |
| 2026-05-06 13:01 | 29.60689 | 34.00378 | 35034 ft | 499 kts | 91° |
| 2026-05-06 13:01 | 29.60678 | 34.08350 | 35032 ft | 499 kts | 91° |
| 2026-05-06 13:02 | 29.60670 | 34.15031 | 35032 ft | 499 kts | 91° |
| 2026-05-06 13:02 | 29.60648 | 34.22993 | 35029 ft | 499 kts | 91° |
| 2026-05-06 13:03 | 29.60648 | 34.30972 | 35025 ft | 500 kts | 91° |
| 2026-05-06 13:03 | 29.60654 | 34.38958 | 35026 ft | 500 kts | 91° |
| 2026-05-06 13:04 | 29.60669 | 34.46954 | 35026 ft | 500 kts | 91° |
| 2026-05-06 13:04 | 29.60337 | 34.54869 | 35007 ft | 498 kts | 103° |
| 2026-05-06 13:04 | 29.59386 | 34.58673 | 35010 ft | 493 kts | 115° |
| 2026-05-06 13:05 | 29.57828 | 34.62149 | 35012 ft | 486 kts | 127° |
| 2026-05-06 13:05 | 29.55755 | 34.65176 | 35004 ft | 478 kts | 139° |
| 2026-05-06 13:05 | 29.53302 | 34.67709 | 35008 ft | 473 kts | 146° |
| 2026-05-06 13:06 | 29.48242 | 34.72535 | 34999 ft | 477 kts | 141° |
| 2026-05-06 13:06 | 29.46069 | 34.75449 | 34988 ft | 485 kts | 130° |
| 2026-05-06 13:06 | 29.44402 | 34.78839 | 34988 ft | 492 kts | 117° |
| 2026-05-06 13:06 | 29.43342 | 34.82581 | 34993 ft | 497 kts | 105° |
| 2026-05-06 13:07 | 29.42761 | 34.86510 | 34998 ft | 499 kts | 101° |
| 2026-05-06 13:07 | 29.42656 | 34.94444 | 34992 ft | 503 kts | 81° |
| 2026-05-06 13:07 | 29.43556 | 34.98305 | 34993 ft | 502 kts | 68° |
| 2026-05-06 13:08 | 29.45097 | 35.01888 | 34989 ft | 500 kts | 56° |
| 2026-05-06 13:08 | 29.49437 | 35.08081 | 34995 ft | 497 kts | 46° |
| 2026-05-06 13:09 | 29.53942 | 35.14102 | 35013 ft | 498 kts | 47° |
| 2026-05-06 13:09 | 29.58942 | 35.19497 | 35013 ft | 490 kts | 28° |
| 2026-05-06 13:09 | 29.61933 | 35.21298 | 35014 ft | 483 kts | 17° |
| 2026-05-06 13:10 | 29.65098 | 35.22544 | 35019 ft | 479 kts | 12° |
| 2026-05-06 13:10 | 29.71461 | 35.24816 | 34998 ft | 479 kts | 12° |
| 2026-05-06 13:11 | 29.77644 | 35.27893 | 35016 ft | 489 kts | 23° |
| 2026-05-06 13:11 | 29.83673 | 35.31515 | 35015 ft | 489 kts | 22° |
| 2026-05-06 13:12 | 29.89732 | 35.35082 | 35025 ft | 489 kts | 22° |
| 2026-05-06 13:12 | 29.95790 | 35.38645 | 35058 ft | 489 kts | 22° |
| 2026-05-06 13:13 | 30.01852 | 35.42214 | 35040 ft | 489 kts | 22° |
| 2026-05-06 13:13 | 30.07926 | 35.45767 | 35032 ft | 489 kts | 21° |
| 2026-05-06 13:14 | 30.13992 | 35.49324 | 35040 ft | 489 kts | 22° |
| 2026-05-06 13:14 | 30.20072 | 35.52894 | 35058 ft | 491 kts | 21° |
| 2026-05-06 13:15 | 30.26122 | 35.56453 | 35039 ft | 491 kts | 21° |
| 2026-05-06 13:15 | 30.29163 | 35.58222 | 34901 ft | 485 kts | 21° |
| 2026-05-06 13:15 | 30.32171 | 35.59983 | 34502 ft | 488 kts | 22° |
| 2026-05-06 13:15 | 30.35210 | 35.61775 | 34234 ft | 490 kts | 22° |
| 2026-05-06 13:16 | 30.38253 | 35.63577 | 33982 ft | 491 kts | 22° |
| 2026-05-06 13:16 | 30.41250 | 35.65357 | 33692 ft | 491 kts | 22° |
| 2026-05-06 13:16 | 30.44294 | 35.67164 | 33438 ft | 491 kts | 22° |
| 2026-05-06 13:16 | 30.47376 | 35.68993 | 33166 ft | 492 kts | 22° |
| 2026-05-06 13:17 | 30.50377 | 35.70779 | 32918 ft | 492 kts | 22° |
| 2026-05-06 13:17 | 30.53424 | 35.72587 | 32599 ft | 491 kts | 22° |
| 2026-05-06 13:17 | 30.56446 | 35.74380 | 31897 ft | 486 kts | 22° |
| 2026-05-06 13:17 | 30.59440 | 35.76153 | 31065 ft | 482 kts | 22° |
| 2026-05-06 13:18 | 30.62415 | 35.77925 | 30268 ft | 480 kts | 22° |
| 2026-05-06 13:18 | 30.65379 | 35.79689 | 29304 ft | 478 kts | 22° |
| 2026-05-06 13:18 | 30.68330 | 35.81445 | 28367 ft | 475 kts | 22° |
| 2026-05-06 13:18 | 30.71262 | 35.83184 | 27576 ft | 470 kts | 22° |
| 2026-05-06 13:19 | 30.74150 | 35.84899 | 26868 ft | 463 kts | 22° |
| 2026-05-06 13:19 | 30.77002 | 35.86598 | 26137 ft | 458 kts | 22° |
| 2026-05-06 13:19 | 30.79817 | 35.88277 | 25439 ft | 452 kts | 22° |
| 2026-05-06 13:19 | 30.82593 | 35.89939 | 24783 ft | 446 kts | 23° |
| 2026-05-06 13:20 | 30.85331 | 35.91597 | 24095 ft | 442 kts | 23° |
| 2026-05-06 13:20 | 30.88042 | 35.93234 | 23372 ft | 437 kts | 23° |
| 2026-05-06 13:20 | 30.90730 | 35.94844 | 22611 ft | 432 kts | 23° |
| 2026-05-06 13:20 | 30.93392 | 35.96431 | 21874 ft | 427 kts | 22° |
| 2026-05-06 13:21 | 30.96024 | 35.97998 | 21157 ft | 423 kts | 22° |
| 2026-05-06 13:21 | 30.98626 | 35.99555 | 20481 ft | 418 kts | 22° |
| 2026-05-06 13:21 | 31.01190 | 36.01094 | 19827 ft | 412 kts | 22° |
| 2026-05-06 13:21 | 31.03727 | 36.02614 | 19236 ft | 408 kts | 22° |
| 2026-05-06 13:22 | 31.06248 | 36.04128 | 18645 ft | 405 kts | 22° |
| 2026-05-06 13:22 | 31.08748 | 36.05634 | 18024 ft | 403 kts | 22° |
| 2026-05-06 13:22 | 31.11231 | 36.07125 | 17426 ft | 402 kts | 22° |
| 2026-05-06 13:22 | 31.13716 | 36.08618 | 16807 ft | 400 kts | 22° |
| 2026-05-06 13:23 | 31.16183 | 36.10110 | 16215 ft | 399 kts | 23° |
| 2026-05-06 13:23 | 31.18641 | 36.11594 | 15655 ft | 397 kts | 22° |
| 2026-05-06 13:23 | 31.21088 | 36.13075 | 15119 ft | 395 kts | 23° |
| 2026-05-06 13:23 | 31.23529 | 36.14549 | 14557 ft | 394 kts | 23° |
| 2026-05-06 13:24 | 31.25965 | 36.16021 | 13978 ft | 394 kts | 23° |
| 2026-05-06 13:24 | 31.28392 | 36.17484 | 13374 ft | 392 kts | 23° |
| 2026-05-06 13:24 | 31.30813 | 36.18945 | 12810 ft | 390 kts | 23° |
| 2026-05-06 13:24 | 31.33216 | 36.20388 | 12231 ft | 388 kts | 23° |
| 2026-05-06 13:25 | 31.35611 | 36.21828 | 11651 ft | 386 kts | 24° |
| 2026-05-06 13:25 | 31.37970 | 36.23250 | 11195 ft | 374 kts | 24° |
| 2026-05-06 13:25 | 31.40227 | 36.24612 | 10901 ft | 356 kts | 24° |
| 2026-05-06 13:25 | 31.42374 | 36.25918 | 10650 ft | 339 kts | 24° |
| 2026-05-06 13:26 | 31.44389 | 36.27145 | 10450 ft | 323 kts | 24° |
| 2026-05-06 13:26 | 31.46368 | 36.28346 | 10191 ft | 311 kts | 24° |
| 2026-05-06 13:26 | 31.48243 | 36.29481 | 9799 ft | 305 kts | 24° |
| 2026-05-06 13:26 | 31.50157 | 36.30577 | 9347 ft | 299 kts | 17° |
| 2026-05-06 13:27 | 31.52141 | 36.30988 | 8902 ft | 292 kts | 355° |
| 2026-05-06 13:27 | 31.54165 | 36.30690 | 8524 ft | 288 kts | 346° |
| 2026-05-06 13:27 | 31.56096 | 36.30267 | 8150 ft | 283 kts | 346° |
| 2026-05-06 13:27 | 31.58046 | 36.29850 | 7768 ft | 280 kts | 347° |
| 2026-05-06 13:28 | 31.59957 | 36.29456 | 7420 ft | 279 kts | 347° |
| 2026-05-06 13:28 | 31.61845 | 36.29074 | 7059 ft | 279 kts | 347° |
| 2026-05-06 13:28 | 31.63750 | 36.28698 | 6702 ft | 275 kts | 347° |
| 2026-05-06 13:28 | 31.65621 | 36.28336 | 6320 ft | 271 kts | 348° |
| 2026-05-06 13:29 | 31.67483 | 36.27976 | 5945 ft | 270 kts | 348° |
| 2026-05-06 13:29 | 31.69303 | 36.27621 | 5706 ft | 259 kts | 348° |
| 2026-05-06 13:29 | 31.71031 | 36.27286 | 5624 ft | 243 kts | 348° |
| 2026-05-06 13:29 | 31.72658 | 36.26968 | 5689 ft | 236 kts | 348° |
| 2026-05-06 13:30 | 31.74268 | 36.26608 | 5666 ft | 234 kts | 341° |
| 2026-05-06 13:30 | 31.75655 | 36.25674 | 5623 ft | 230 kts | 312° |
| 2026-05-06 13:30 | 31.76419 | 36.24048 | 5373 ft | 229 kts | 282° |
| 2026-05-06 13:30 | 31.76411 | 36.22210 | 5265 ft | 226 kts | 262° |
| 2026-05-06 13:31 | 31.76119 | 36.20420 | 5260 ft | 222 kts | 260° |
| 2026-05-06 13:31 | 31.75829 | 36.18637 | 5259 ft | 223 kts | 261° |
| 2026-05-06 13:31 | 31.75551 | 36.16836 | 5243 ft | 222 kts | 261° |
| 2026-05-06 13:31 | 31.75281 | 36.15024 | 5005 ft | 227 kts | 261° |
| 2026-05-06 13:32 | 31.75017 | 36.13217 | 4939 ft | 223 kts | 262° |
| 2026-05-06 13:32 | 31.74759 | 36.11400 | 4946 ft | 226 kts | 263° |
| 2026-05-06 13:32 | 31.74910 | 36.09595 | 4948 ft | 226 kts | 290° |
| 2026-05-06 13:32 | 31.75809 | 36.08092 | 4960 ft | 228 kts | 319° |
| 2026-05-06 13:33 | 31.77217 | 36.07293 | 4959 ft | 223 kts | 347° |
| 2026-05-06 13:33 | 31.78707 | 36.07425 | 4950 ft | 215 kts | 17° |
| 2026-05-06 13:33 | 31.80073 | 36.08187 | 4968 ft | 219 kts | 24° |
| 2026-05-06 13:33 | 31.81258 | 36.09279 | 4961 ft | 223 kts | 50° |
| 2026-05-06 13:34 | 31.81876 | 36.10948 | 4974 ft | 223 kts | 76° |
| 2026-05-06 13:34 | 31.82093 | 36.12784 | 4980 ft | 229 kts | 84° |
| 2026-05-06 13:34 | 31.82154 | 36.14597 | 4992 ft | 210 kts | 95° |
| 2026-05-06 13:34 | 31.81778 | 36.16154 | 4984 ft | 188 kts | 110° |
| 2026-05-06 13:35 | 31.81319 | 36.17538 | 4959 ft | 179 kts | 121° |
| 2026-05-06 13:35 | 31.80651 | 36.18763 | 4965 ft | 177 kts | 125° |
| 2026-05-06 13:35 | 31.79918 | 36.19930 | 4956 ft | 178 kts | 141° |
| 2026-05-06 13:35 | 31.78819 | 36.20468 | 4962 ft | 170 kts | 180° |
| 2026-05-06 13:36 | 31.77667 | 36.20281 | 4981 ft | 167 kts | 195° |
| 2026-05-06 13:36 | 31.76640 | 36.19766 | 4963 ft | 159 kts | 229° |
| 2026-05-06 13:36 | 31.76083 | 36.18680 | 4978 ft | 153 kts | 251° |
| 2026-05-06 13:36 | 31.75757 | 36.17479 | 4982 ft | 155 kts | 257° |
| 2026-05-06 13:37 | 31.75519 | 36.16283 | 4984 ft | 142 kts | 261° |
| 2026-05-06 13:37 | 31.75322 | 36.15151 | 4899 ft | 143 kts | 260° |
| 2026-05-06 13:37 | 31.75138 | 36.14008 | 4724 ft | 142 kts | 262° |
| 2026-05-06 13:37 | 31.74973 | 36.12892 | 4532 ft | 141 kts | 262° |
| 2026-05-06 13:38 | 31.74805 | 36.11732 | 4328 ft | 141 kts | 262° |
| 2026-05-06 13:38 | 31.74642 | 36.10599 | 4145 ft | 140 kts | 262° |
| 2026-05-06 13:38 | 31.74483 | 36.09491 | 3953 ft | 140 kts | 262° |
| 2026-05-06 13:38 | 31.74319 | 36.08351 | 3770 ft | 139 kts | 263° |
| 2026-05-06 13:39 | 31.74158 | 36.07232 | 3583 ft | 138 kts | 262° |
| 2026-05-06 13:39 | 31.73998 | 36.06126 | 3396 ft | 137 kts | 261° |
| 2026-05-06 13:39 | 31.73839 | 36.05021 | 3183 ft | 139 kts | 263° |
| 2026-05-06 13:39 | 31.73678 | 36.03904 | 2985 ft | 139 kts | 262° |
| 2026-05-06 13:40 | 31.73519 | 36.02797 | 2785 ft | 135 kts | 265° |
| 2026-05-06 13:40 | 31.73362 | 36.01737 | 2586 ft | 134 kts | 264° |
| 2026-05-06 13:40 | 31.73210 | 36.00650 | 2455 ft | 137 kts | 263° |
| 2026-05-06 13:40 | 31.73065 | 35.99651 | 2417 ft | 113 kts | 264° |
| 2026-05-06 13:41 | 31.72971 | 35.98952 | 2415 ft | 56 kts | 258° |
| 2026-05-06 13:41 | 31.72928 | 35.98623 | 2415 ft | 38 kts | 260° |
| 2026-05-06 13:41 | 31.72880 | 35.98374 | 2414 ft | 25 kts | 262° |
| 2026-05-06 13:41 | 31.72848 | 35.98211 | 2411 ft | 8 kts | 198° |
| 2026-05-06 13:42 | 31.72785 | 35.98201 | 2413 ft | 24 kts | 172° |
| 2026-05-06 13:42 | 31.72628 | 35.98228 | 2413 ft | 20 kts | 153° |
| 2026-05-06 13:42 | 31.72605 | 35.98382 | 2414 ft | 23 kts | 78° |
| 2026-05-06 13:42 | 31.72636 | 35.98573 | 2414 ft | 24 kts | 80° |
| 2026-05-06 13:43 | 31.72662 | 35.98758 | 2414 ft | 19 kts | 82° |
| 2026-05-06 13:43 | 31.72625 | 35.98899 | 2414 ft | 19 kts | 172° |
| 2026-05-06 13:43 | 31.72520 | 35.98845 | 2414 ft | 21 kts | 251° |
| 2026-05-06 13:43 | 31.72494 | 35.98690 | 2414 ft | 20 kts | 261° |
| 2026-05-06 13:44 | 31.72473 | 35.98551 | 2414 ft | 9 kts | 260° |
| 2026-05-06 13:44 | 31.72435 | 35.98501 | 2414 ft | 7 kts | 185° |
| 2026-05-06 13:44 | 31.72404 | 35.98505 | 2414 ft | 1 kts | 170° |
| 2026-05-06 13:44 | 31.72403 | 35.98505 | 2414 ft | 0 kts | 170° |